PWSweather.com
Personal Weather Stations
Station Observations
URBANDALE
Westwind Acres And Meredith Hills, Urbandale, IA 50322

Westwind Acres And Meredith HillsUrbandale, IA 50322

Lat: 41.643, Lon: -93.709

Elevation: 928

Station Type:

http://urbandaleweather.com

High Low Average
Temperature 28.0°F-2.2°C 14.2°F-9.9°C 22.1°F-5.5°C
Dew Point 15.4°F-9.2°C 8.4°F-13.1°C 11.8°F-11.2°C
Winds 2.9 mph 4.7 kmh Calm Calm 1.0 mph SSW1.6 kmh SSW
Wind Gusts 9.0 mph14.5 kmh -- 3.0 mph4.8 kmh
Humidity 78% 47% 65%
Pressure 30.57 in1035.2 mb 30.48 in1032.2 mb -
Precipitation 0.00 in0.0 mm - -
Hour Temp Dew Point Humidity Winds Wind Gusts Pressure Precip Precip Rate Daily Precip Total
12:02 AM 23.4°F-4.8°C 15.4°F-9.2°C 71% 2.9 mph NE4.7 kmh NE 6.0 mph9.7 kmh 30.49 in1032.5 mb 0.00 in0.0 mm 0.00 in0.0 mm 0.00 in0.0 mm
12:07 AM 23.2°F-4.9°C 15.3°F-9.3°C 71% 2.9 mph NE4.7 kmh NE 8.1 mph13.0 kmh 30.49 in1032.5 mb 0.00 in0.0 mm 0.00 in0.0 mm 0.00 in0.0 mm
12:12 AM 23.0°F-5.0°C 15.1°F-9.4°C 71% 2.9 mph NW4.7 kmh NW 8.1 mph13.0 kmh 30.49 in1032.5 mb 0.00 in0.0 mm 0.00 in0.0 mm 0.00 in0.0 mm
12:17 AM 22.8°F-5.1°C 14.5°F-9.7°C 70% 2.9 mph N4.7 kmh N 8.1 mph13.0 kmh 30.50 in1032.8 mb 0.00 in0.0 mm 0.00 in0.0 mm 0.00 in0.0 mm
12:22 AM 22.8°F-5.1°C 14.9°F-9.5°C 71% 2.9 mph NE4.7 kmh NE 9.0 mph14.5 kmh 30.50 in1032.8 mb 0.00 in0.0 mm 0.00 in0.0 mm 0.00 in0.0 mm
12:27 AM 22.6°F-5.2°C 14.7°F-9.6°C 71% 2.9 mph NNE4.7 kmh NNE 6.0 mph9.7 kmh 30.50 in1032.8 mb 0.00 in0.0 mm 0.00 in0.0 mm 0.00 in0.0 mm
12:32 AM 22.5°F-5.3°C 14.5°F-9.7°C 71% 2.0 mph N3.2 kmh N 6.0 mph9.7 kmh 30.50 in1032.8 mb 0.00 in0.0 mm 0.00 in0.0 mm 0.00 in0.0 mm
12:37 AM 22.5°F-5.3°C 14.5°F-9.7°C 71% 2.9 mph N4.7 kmh N 6.0 mph9.7 kmh 30.51 in1033.2 mb 0.00 in0.0 mm 0.00 in0.0 mm 0.00 in0.0 mm
12:42 AM 22.3°F-5.4°C 14.4°F-9.8°C 71% 2.0 mph NNE3.2 kmh NNE 6.9 mph11.1 kmh 30.51 in1033.2 mb 0.00 in0.0 mm 0.00 in0.0 mm 0.00 in0.0 mm
12:47 AM 22.3°F-5.4°C 14.4°F-9.8°C 71% 2.0 mph NNE3.2 kmh NNE 6.0 mph9.7 kmh 30.51 in1033.2 mb 0.00 in0.0 mm 0.00 in0.0 mm 0.00 in0.0 mm
12:52 AM 22.1°F-5.5°C 13.8°F-10.1°C 70% 2.0 mph N3.2 kmh N 6.0 mph9.7 kmh 30.51 in1033.2 mb 0.00 in0.0 mm 0.00 in0.0 mm 0.00 in0.0 mm
12:57 AM 22.1°F-5.5°C 13.8°F-10.1°C 70% 2.9 mph NNE4.7 kmh NNE 7.0 mph11.3 kmh 30.51 in1033.2 mb 0.00 in0.0 mm 0.00 in0.0 mm 0.00 in0.0 mm
01:02 AM 21.9°F-5.6°C 13.6°F-10.2°C 70% 2.9 mph NE4.7 kmh NE 6.9 mph11.1 kmh 30.51 in1033.2 mb 0.00 in0.0 mm 0.00 in0.0 mm 0.00 in0.0 mm
01:07 AM 21.9°F-5.6°C 13.6°F-10.2°C 70% 2.9 mph NE4.7 kmh NE 9.0 mph14.5 kmh 30.52 in1033.5 mb 0.00 in0.0 mm 0.00 in0.0 mm 0.00 in0.0 mm
01:12 AM 21.7°F-5.7°C 13.5°F-10.3°C 70% 2.9 mph W4.7 kmh W 6.9 mph11.1 kmh 30.52 in1033.5 mb 0.00 in0.0 mm 0.00 in0.0 mm 0.00 in0.0 mm
01:17 AM 21.6°F-5.8°C 13.3°F-10.4°C 70% 2.9 mph N4.7 kmh N 8.1 mph13.0 kmh 30.51 in1033.2 mb 0.00 in0.0 mm 0.00 in0.0 mm 0.00 in0.0 mm
01:22 AM 21.6°F-5.8°C 13.3°F-10.4°C 70% 2.0 mph NW3.2 kmh NW 6.9 mph11.1 kmh 30.52 in1033.5 mb 0.00 in0.0 mm 0.00 in0.0 mm 0.00 in0.0 mm
01:27 AM 21.4°F-5.9°C 13.1°F-10.5°C 70% 2.0 mph N3.2 kmh N 6.9 mph11.1 kmh 30.52 in1033.5 mb 0.00 in0.0 mm 0.00 in0.0 mm 0.00 in0.0 mm
01:32 AM 21.4°F-5.9°C 13.1°F-10.5°C 70% 2.9 mph WNW4.7 kmh WNW 6.9 mph11.1 kmh 30.52 in1033.5 mb 0.00 in0.0 mm 0.00 in0.0 mm 0.00 in0.0 mm
01:37 AM 21.2°F-6.0°C 12.9°F-10.6°C 70% 2.9 mph NE4.7 kmh NE 6.9 mph11.1 kmh 30.51 in1033.2 mb 0.00 in0.0 mm 0.00 in0.0 mm 0.00 in0.0 mm
01:42 AM 21.0°F-6.1°C 12.7°F-10.7°C 70% 2.0 mph NNE3.2 kmh NNE 6.9 mph11.1 kmh 30.52 in1033.5 mb 0.00 in0.0 mm 0.00 in0.0 mm 0.00 in0.0 mm
01:47 AM 21.0°F-6.1°C 13.1°F-10.5°C 71% 2.0 mph NNE3.2 kmh NNE 8.1 mph13.0 kmh 30.52 in1033.5 mb 0.00 in0.0 mm 0.00 in0.0 mm 0.00 in0.0 mm
01:52 AM 20.8°F-6.2°C 12.9°F-10.6°C 71% 2.0 mph NW3.2 kmh NW 8.1 mph13.0 kmh 30.51 in1033.2 mb 0.00 in0.0 mm 0.00 in0.0 mm 0.00 in0.0 mm
01:57 AM 20.7°F-6.3°C 12.7°F-10.7°C 71% 2.0 mph NW3.2 kmh NW 4.0 mph6.4 kmh 30.51 in1033.2 mb 0.00 in0.0 mm 0.00 in0.0 mm 0.00 in0.0 mm
02:02 AM 20.7°F-6.3°C 13.1°F-10.5°C 72% 2.0 mph NNW3.2 kmh NNW 6.0 mph9.7 kmh 30.52 in1033.5 mb 0.00 in0.0 mm 0.00 in0.0 mm 0.00 in0.0 mm
02:07 AM 20.5°F-6.4°C 12.9°F-10.6°C 72% 2.0 mph N3.2 kmh N 6.9 mph11.1 kmh 30.51 in1033.2 mb 0.00 in0.0 mm 0.00 in0.0 mm 0.00 in0.0 mm
02:12 AM 20.1°F-6.6°C 12.9°F-10.6°C 73% 2.0 mph N3.2 kmh N 6.0 mph9.7 kmh 30.51 in1033.2 mb 0.00 in0.0 mm 0.00 in0.0 mm 0.00 in0.0 mm
02:17 AM 20.1°F-6.6°C 12.9°F-10.6°C 73% 2.0 mph NNW3.2 kmh NNW 4.9 mph7.9 kmh 30.51 in1033.2 mb 0.00 in0.0 mm 0.00 in0.0 mm 0.00 in0.0 mm
02:22 AM 19.9°F-6.7°C 12.7°F-10.7°C 73% 0.9 mph N1.4 kmh N 4.0 mph6.4 kmh 30.51 in1033.2 mb 0.00 in0.0 mm 0.00 in0.0 mm 0.00 in0.0 mm
02:27 AM 19.9°F-6.7°C 12.4°F-10.9°C 72% 0.9 mph N1.4 kmh N 4.9 mph7.9 kmh 30.51 in1033.2 mb 0.00 in0.0 mm 0.00 in0.0 mm 0.00 in0.0 mm
02:32 AM 19.9°F-6.7°C 12.4°F-10.9°C 72% 2.0 mph NE3.2 kmh NE 4.9 mph7.9 kmh 30.52 in1033.5 mb 0.00 in0.0 mm 0.00 in0.0 mm 0.00 in0.0 mm
02:37 AM 19.8°F-6.8°C 12.2°F-11.0°C 72% 2.0 mph NNE3.2 kmh NNE 6.0 mph9.7 kmh 30.52 in1033.5 mb 0.00 in0.0 mm 0.00 in0.0 mm 0.00 in0.0 mm
02:42 AM 19.8°F-6.8°C 12.2°F-11.0°C 72% 2.0 mph N3.2 kmh N 6.0 mph9.7 kmh 30.52 in1033.5 mb 0.00 in0.0 mm 0.00 in0.0 mm 0.00 in0.0 mm
02:47 AM 19.6°F-6.9°C 12.0°F-11.1°C 72% 2.0 mph WNW3.2 kmh WNW 4.9 mph7.9 kmh 30.52 in1033.5 mb 0.00 in0.0 mm 0.00 in0.0 mm 0.00 in0.0 mm
02:52 AM 19.6°F-6.9°C 12.4°F-10.9°C 73% 2.0 mph N3.2 kmh N 2.9 mph4.7 kmh 30.52 in1033.5 mb 0.00 in0.0 mm 0.00 in0.0 mm 0.00 in0.0 mm
02:57 AM 19.4°F-7.0°C 12.2°F-11.0°C 73% 0.9 mph S1.4 kmh S 4.0 mph6.4 kmh 30.52 in1033.5 mb 0.00 in0.0 mm 0.00 in0.0 mm 0.00 in0.0 mm
03:02 AM 19.2°F-7.1°C 11.7°F-11.3°C 72% 2.0 mph NE3.2 kmh NE 7.0 mph11.3 kmh 30.52 in1033.5 mb 0.00 in0.0 mm 0.00 in0.0 mm 0.00 in0.0 mm
03:07 AM 19.2°F-7.1°C 11.7°F-11.3°C 72% 2.9 mph NNE4.7 kmh NNE 8.9 mph14.3 kmh 30.53 in1033.9 mb 0.00 in0.0 mm 0.00 in0.0 mm 0.00 in0.0 mm
03:12 AM 19.0°F-7.2°C 11.5°F-11.4°C 72% 2.9 mph NE4.7 kmh NE 6.0 mph9.7 kmh 30.53 in1033.9 mb 0.00 in0.0 mm 0.00 in0.0 mm 0.00 in0.0 mm
03:17 AM 19.0°F-7.2°C 11.5°F-11.4°C 72% 2.0 mph N3.2 kmh N 7.0 mph11.3 kmh 30.52 in1033.5 mb 0.00 in0.0 mm 0.00 in0.0 mm 0.00 in0.0 mm
03:22 AM 18.9°F-7.3°C 11.3°F-11.5°C 72% 2.0 mph NW3.2 kmh NW 4.9 mph7.9 kmh 30.52 in1033.5 mb 0.00 in0.0 mm 0.00 in0.0 mm 0.00 in0.0 mm
03:27 AM 18.9°F-7.3°C 11.3°F-11.5°C 72% 2.0 mph N3.2 kmh N 6.0 mph9.7 kmh 30.53 in1033.9 mb 0.00 in0.0 mm 0.00 in0.0 mm 0.00 in0.0 mm
03:32 AM 18.9°F-7.3°C 10.9°F-11.7°C 71% 2.0 mph N3.2 kmh N 6.9 mph11.1 kmh 30.53 in1033.9 mb 0.00 in0.0 mm 0.00 in0.0 mm 0.00 in0.0 mm
03:37 AM 18.7°F-7.4°C 10.8°F-11.8°C 71% 2.0 mph NW3.2 kmh NW 4.9 mph7.9 kmh 30.54 in1034.2 mb 0.00 in0.0 mm 0.00 in0.0 mm 0.00 in0.0 mm
03:42 AM 18.7°F-7.4°C 10.8°F-11.8°C 71% 2.0 mph N3.2 kmh N 6.0 mph9.7 kmh 30.54 in1034.2 mb 0.00 in0.0 mm 0.00 in0.0 mm 0.00 in0.0 mm
03:47 AM 18.5°F-7.5°C 10.8°F-11.8°C 71% 2.0 mph N3.2 kmh N 4.9 mph7.9 kmh 30.54 in1034.2 mb 0.00 in0.0 mm 0.00 in0.0 mm 0.00 in0.0 mm
03:53 AM 18.3°F-7.6°C 10.6°F-11.9°C 71% 2.0 mph N3.2 kmh N 6.0 mph9.7 kmh 30.53 in1033.9 mb 0.00 in0.0 mm 0.00 in0.0 mm 0.00 in0.0 mm
03:58 AM 18.3°F-7.6°C 10.6°F-11.9°C 71% 2.0 mph NNE3.2 kmh NNE 2.9 mph4.7 kmh 30.54 in1034.2 mb 0.00 in0.0 mm 0.00 in0.0 mm 0.00 in0.0 mm
04:03 AM 18.1°F-7.7°C 10.4°F-12.0°C 71% 0.9 mph N1.4 kmh N 4.0 mph6.4 kmh 30.54 in1034.2 mb 0.00 in0.0 mm 0.00 in0.0 mm 0.00 in0.0 mm
04:08 AM 18.1°F-7.7°C 10.4°F-12.0°C 71% 0.9 mph N1.4 kmh N 6.0 mph9.7 kmh 30.54 in1034.2 mb 0.00 in0.0 mm 0.00 in0.0 mm 0.00 in0.0 mm
04:13 AM 18.0°F-7.8°C 10.2°F-12.1°C 71% 0.9 mph N1.4 kmh N 4.0 mph6.4 kmh 30.54 in1034.2 mb 0.00 in0.0 mm 0.00 in0.0 mm 0.00 in0.0 mm
04:18 AM 18.0°F-7.8°C 10.2°F-12.1°C 71% 0.9 mph NW1.4 kmh NW 6.0 mph9.7 kmh 30.54 in1034.2 mb 0.00 in0.0 mm 0.00 in0.0 mm 0.00 in0.0 mm
04:23 AM 17.8°F-7.9°C 10.0°F-12.2°C 71% 0.9 mph N1.4 kmh N 2.9 mph4.7 kmh 30.54 in1034.2 mb 0.00 in0.0 mm 0.00 in0.0 mm 0.00 in0.0 mm
04:28 AM 17.6°F-8.0°C 9.9°F-12.3°C 71% 0.9 mph NNE1.4 kmh NNE 4.0 mph6.4 kmh 30.55 in1034.5 mb 0.00 in0.0 mm 0.00 in0.0 mm 0.00 in0.0 mm
04:33 AM 17.4°F-8.1°C 9.7°F-12.4°C 71% 0.9 mph NE1.4 kmh NE 4.0 mph6.4 kmh 30.55 in1034.5 mb 0.00 in0.0 mm 0.00 in0.0 mm 0.00 in0.0 mm
04:38 AM 17.4°F-8.1°C 9.7°F-12.4°C 71% 0.9 mph NNE1.4 kmh NNE 2.9 mph4.7 kmh 30.55 in1034.5 mb 0.00 in0.0 mm 0.00 in0.0 mm 0.00 in0.0 mm
04:43 AM 17.2°F-8.2°C 9.5°F-12.5°C 71% 0.9 mph N1.4 kmh N 4.9 mph7.9 kmh 30.55 in1034.5 mb 0.00 in0.0 mm 0.00 in0.0 mm 0.00 in0.0 mm
04:48 AM 17.2°F-8.2°C 9.9°F-12.3°C 72% 0.9 mph N1.4 kmh N 2.9 mph4.7 kmh 30.55 in1034.5 mb 0.00 in0.0 mm 0.00 in0.0 mm 0.00 in0.0 mm
04:53 AM 17.2°F-8.2°C 9.9°F-12.3°C 72% 0.9 mph NNE1.4 kmh NNE 4.9 mph7.9 kmh 30.55 in1034.5 mb 0.00 in0.0 mm 0.00 in0.0 mm 0.00 in0.0 mm
04:58 AM 17.1°F-8.3°C 9.7°F-12.4°C 72% 0.9 mph NNE1.4 kmh NNE 2.9 mph4.7 kmh 30.56 in1034.9 mb 0.00 in0.0 mm 0.00 in0.0 mm 0.00 in0.0 mm
05:03 AM 17.1°F-8.3°C 9.7°F-12.4°C 72% Calm Calm 4.9 mph7.9 kmh 30.56 in1034.9 mb 0.00 in0.0 mm 0.00 in0.0 mm 0.00 in0.0 mm
05:08 AM 16.9°F-8.4°C 9.5°F-12.5°C 72% Calm Calm 2.0 mph3.2 kmh 30.55 in1034.5 mb 0.00 in0.0 mm 0.00 in0.0 mm 0.00 in0.0 mm
05:13 AM 16.7°F-8.5°C 9.5°F-12.5°C 73% Calm Calm -- 30.55 in1034.5 mb 0.00 in0.0 mm 0.00 in0.0 mm 0.00 in0.0 mm
05:18 AM 16.7°F-8.5°C 9.5°F-12.5°C 73% Calm Calm 3.0 mph4.8 kmh 30.56 in1034.9 mb 0.00 in0.0 mm 0.00 in0.0 mm 0.00 in0.0 mm
05:23 AM 16.5°F-8.6°C 9.3°F-12.6°C 73% 0.9 mph N1.4 kmh N 2.0 mph3.2 kmh 30.55 in1034.5 mb 0.00 in0.0 mm 0.00 in0.0 mm 0.00 in0.0 mm
05:28 AM 16.5°F-8.6°C 9.3°F-12.6°C 73% 0.9 mph NNE1.4 kmh NNE 4.0 mph6.4 kmh 30.56 in1034.9 mb 0.00 in0.0 mm 0.00 in0.0 mm 0.00 in0.0 mm
05:33 AM 16.5°F-8.6°C 9.3°F-12.6°C 73% 0.9 mph NW1.4 kmh NW 4.0 mph6.4 kmh 30.56 in1034.9 mb 0.00 in0.0 mm 0.00 in0.0 mm 0.00 in0.0 mm
05:38 AM 16.3°F-8.7°C 9.1°F-12.7°C 73% 0.9 mph N1.4 kmh N 2.0 mph3.2 kmh 30.56 in1034.9 mb 0.00 in0.0 mm 0.00 in0.0 mm 0.00 in0.0 mm
05:43 AM 16.3°F-8.7°C 9.1°F-12.7°C 73% Calm Calm 4.0 mph6.4 kmh 30.55 in1034.5 mb 0.00 in0.0 mm 0.00 in0.0 mm 0.00 in0.0 mm
05:48 AM 16.2°F-8.8°C 9.0°F-12.8°C 73% 0.9 mph N1.4 kmh N 6.0 mph9.7 kmh 30.55 in1034.5 mb 0.00 in0.0 mm 0.00 in0.0 mm 0.00 in0.0 mm
05:53 AM 16.2°F-8.8°C 9.0°F-12.8°C 73% 0.9 mph N1.4 kmh N 2.9 mph4.7 kmh 30.56 in1034.9 mb 0.00 in0.0 mm 0.00 in0.0 mm 0.00 in0.0 mm
05:58 AM 16.0°F-8.9°C 8.8°F-12.9°C 73% Calm Calm 2.9 mph4.7 kmh 30.56 in1034.9 mb 0.00 in0.0 mm 0.00 in0.0 mm 0.00 in0.0 mm
06:03 AM 16.0°F-8.9°C 9.1°F-12.7°C 74% Calm Calm 2.9 mph4.7 kmh 30.56 in1034.9 mb 0.00 in0.0 mm 0.00 in0.0 mm 0.00 in0.0 mm
06:08 AM 15.8°F-9.0°C 9.0°F-12.8°C 74% Calm Calm 0.9 mph1.4 kmh 30.56 in1034.9 mb 0.00 in0.0 mm 0.00 in0.0 mm 0.00 in0.0 mm
06:13 AM 15.6°F-9.1°C 8.8°F-12.9°C 74% Calm Calm 2.0 mph3.2 kmh 30.56 in1034.9 mb 0.00 in0.0 mm 0.00 in0.0 mm 0.00 in0.0 mm
06:18 AM 15.6°F-9.1°C 8.8°F-12.9°C 74% Calm Calm 0.9 mph1.4 kmh 30.56 in1034.9 mb 0.00 in0.0 mm 0.00 in0.0 mm 0.00 in0.0 mm
06:23 AM 15.4°F-9.2°C 9.0°F-12.8°C 75% Calm Calm 0.9 mph1.4 kmh 30.56 in1034.9 mb 0.00 in0.0 mm 0.00 in0.0 mm 0.00 in0.0 mm
06:28 AM 15.3°F-9.3°C 8.8°F-12.9°C 75% Calm Calm 2.0 mph3.2 kmh 30.56 in1034.9 mb 0.00 in0.0 mm 0.00 in0.0 mm 0.00 in0.0 mm
06:33 AM 15.3°F-9.3°C 8.8°F-12.9°C 75% Calm Calm 0.9 mph1.4 kmh 30.56 in1034.9 mb 0.00 in0.0 mm 0.00 in0.0 mm 0.00 in0.0 mm
06:38 AM 15.1°F-9.4°C 9.0°F-12.8°C 76% Calm Calm -- 30.56 in1034.9 mb 0.00 in0.0 mm 0.00 in0.0 mm 0.00 in0.0 mm
06:43 AM 14.9°F-9.5°C 9.0°F-12.8°C 77% Calm Calm 0.9 mph1.4 kmh 30.56 in1034.9 mb 0.00 in0.0 mm 0.00 in0.0 mm 0.00 in0.0 mm
06:48 AM 14.7°F-9.6°C 8.8°F-12.9°C 77% Calm Calm -- 30.56 in1034.9 mb 0.00 in0.0 mm 0.00 in0.0 mm 0.00 in0.0 mm
06:53 AM 14.5°F-9.7°C 8.6°F-13.0°C 77% Calm Calm 2.0 mph3.2 kmh 30.56 in1034.9 mb 0.00 in0.0 mm 0.00 in0.0 mm 0.00 in0.0 mm
06:58 AM 14.4°F-9.8°C 8.4°F-13.1°C 77% Calm Calm 0.9 mph1.4 kmh 30.56 in1034.9 mb 0.00 in0.0 mm 0.00 in0.0 mm 0.00 in0.0 mm
07:03 AM 14.4°F-9.8°C 8.8°F-12.9°C 78% Calm Calm 0.9 mph1.4 kmh 30.56 in1034.9 mb 0.00 in0.0 mm 0.00 in0.0 mm 0.00 in0.0 mm
07:08 AM 14.2°F-9.9°C 8.6°F-13.0°C 78% Calm Calm 2.9 mph4.7 kmh 30.56 in1034.9 mb 0.00 in0.0 mm 0.00 in0.0 mm 0.00 in0.0 mm
07:13 AM 14.2°F-9.9°C 8.6°F-13.0°C 78% Calm Calm 2.0 mph3.2 kmh 30.56 in1034.9 mb 0.00 in0.0 mm 0.00 in0.0 mm 0.00 in0.0 mm
07:18 AM 14.2°F-9.9°C 8.6°F-13.0°C 78% Calm Calm 2.0 mph3.2 kmh 30.55 in1034.5 mb 0.00 in0.0 mm 0.00 in0.0 mm 0.00 in0.0 mm
07:23 AM 14.4°F-9.8°C 8.8°F-12.9°C 78% Calm Calm 0.9 mph1.4 kmh 30.56 in1034.9 mb 0.00 in0.0 mm 0.00 in0.0 mm 0.00 in0.0 mm
07:28 AM 14.4°F-9.8°C 8.8°F-12.9°C 78% Calm Calm 0.9 mph1.4 kmh 30.56 in1034.9 mb 0.00 in0.0 mm 0.00 in0.0 mm 0.00 in0.0 mm
07:33 AM 14.5°F-9.7°C 9.0°F-12.8°C 78% Calm Calm 4.0 mph6.4 kmh 30.56 in1034.9 mb 0.00 in0.0 mm 0.00 in0.0 mm 0.00 in0.0 mm
07:38 AM 14.5°F-9.7°C 9.0°F-12.8°C 78% 0.9 mph N1.4 kmh N 2.9 mph4.7 kmh 30.56 in1034.9 mb 0.00 in0.0 mm 0.00 in0.0 mm 0.00 in0.0 mm
07:43 AM 14.7°F-9.6°C 8.8°F-12.9°C 77% Calm Calm 2.0 mph3.2 kmh 30.56 in1034.9 mb 0.00 in0.0 mm 0.00 in0.0 mm 0.00 in0.0 mm
07:48 AM 14.9°F-9.5°C 9.0°F-12.8°C 77% Calm Calm 2.0 mph3.2 kmh 30.56 in1034.9 mb 0.00 in0.0 mm 0.00 in0.0 mm 0.00 in0.0 mm
07:53 AM 14.7°F-9.6°C 8.8°F-12.9°C 77% 0.9 mph N1.4 kmh N 3.0 mph4.8 kmh 30.56 in1034.9 mb 0.00 in0.0 mm 0.00 in0.0 mm 0.00 in0.0 mm
07:58 AM 14.9°F-9.5°C 9.0°F-12.8°C 77% 0.9 mph WNW1.4 kmh WNW 2.0 mph3.2 kmh 30.56 in1034.9 mb 0.00 in0.0 mm 0.00 in0.0 mm 0.00 in0.0 mm
08:03 AM 15.1°F-9.4°C 9.1°F-12.7°C 77% Calm Calm 2.9 mph4.7 kmh 30.57 in1035.2 mb 0.00 in0.0 mm 0.00 in0.0 mm 0.00 in0.0 mm
08:08 AM 15.3°F-9.3°C 9.3°F-12.6°C 77% 0.9 mph N1.4 kmh N 2.9 mph4.7 kmh 30.57 in1035.2 mb 0.00 in0.0 mm 0.00 in0.0 mm 0.00 in0.0 mm
08:13 AM 15.4°F-9.2°C 9.5°F-12.5°C 77% 0.9 mph NNW1.4 kmh NNW 2.9 mph4.7 kmh 30.57 in1035.2 mb 0.00 in0.0 mm 0.00 in0.0 mm 0.00 in0.0 mm
08:18 AM 16.0°F-8.9°C 10.0°F-12.2°C 77% Calm Calm 0.9 mph1.4 kmh 30.56 in1034.9 mb 0.00 in0.0 mm 0.00 in0.0 mm 0.00 in0.0 mm
08:23 AM 16.2°F-8.8°C 9.9°F-12.3°C 76% Calm Calm 3.0 mph4.8 kmh 30.57 in1035.2 mb 0.00 in0.0 mm 0.00 in0.0 mm 0.00 in0.0 mm
08:28 AM 16.3°F-8.7°C 10.0°F-12.2°C 76% Calm Calm 2.9 mph4.7 kmh 30.57 in1035.2 mb 0.00 in0.0 mm 0.00 in0.0 mm 0.00 in0.0 mm
08:33 AM 16.5°F-8.6°C 10.2°F-12.1°C 76% 0.9 mph N1.4 kmh N 2.0 mph3.2 kmh 30.56 in1034.9 mb 0.00 in0.0 mm 0.00 in0.0 mm 0.00 in0.0 mm
08:38 AM 16.9°F-8.4°C 10.6°F-11.9°C 76% 0.9 mph NNE1.4 kmh NNE 4.0 mph6.4 kmh 30.56 in1034.9 mb 0.00 in0.0 mm 0.00 in0.0 mm 0.00 in0.0 mm
08:43 AM 17.1°F-8.3°C 10.6°F-11.9°C 75% 0.9 mph NNE1.4 kmh NNE 2.9 mph4.7 kmh 30.56 in1034.9 mb 0.00 in0.0 mm 0.00 in0.0 mm 0.00 in0.0 mm
08:48 AM 17.4°F-8.1°C 10.9°F-11.7°C 75% 0.9 mph NW1.4 kmh NW 2.0 mph3.2 kmh 30.56 in1034.9 mb 0.00 in0.0 mm 0.00 in0.0 mm 0.00 in0.0 mm
08:53 AM 18.0°F-7.8°C 11.3°F-11.5°C 75% Calm Calm 0.9 mph1.4 kmh 30.56 in1034.9 mb 0.00 in0.0 mm 0.00 in0.0 mm 0.00 in0.0 mm
08:58 AM 18.3°F-7.6°C 11.5°F-11.4°C 74% Calm Calm 2.0 mph3.2 kmh 30.56 in1034.9 mb 0.00 in0.0 mm 0.00 in0.0 mm 0.00 in0.0 mm
09:03 AM 18.7°F-7.4°C 11.5°F-11.4°C 73% Calm Calm 2.0 mph3.2 kmh 30.56 in1034.9 mb 0.00 in0.0 mm 0.00 in0.0 mm 0.00 in0.0 mm
09:08 AM 19.0°F-7.2°C 11.8°F-11.2°C 73% Calm Calm 2.0 mph3.2 kmh 30.57 in1035.2 mb 0.00 in0.0 mm 0.00 in0.0 mm 0.00 in0.0 mm
09:13 AM 19.2°F-7.1°C 11.7°F-11.3°C 72% Calm Calm 2.9 mph4.7 kmh 30.57 in1035.2 mb 0.00 in0.0 mm 0.00 in0.0 mm 0.00 in0.0 mm
09:18 AM 19.4°F-7.0°C 11.3°F-11.5°C 70% 0.9 mph NNW1.4 kmh NNW 2.0 mph3.2 kmh 30.57 in1035.2 mb 0.00 in0.0 mm 0.00 in0.0 mm 0.00 in0.0 mm
09:23 AM 19.6°F-6.9°C 11.5°F-11.4°C 70% Calm Calm 2.0 mph3.2 kmh 30.57 in1035.2 mb 0.00 in0.0 mm 0.00 in0.0 mm 0.00 in0.0 mm
09:28 AM 19.9°F-6.7°C 11.7°F-11.3°C 70% Calm Calm 4.9 mph7.9 kmh 30.57 in1035.2 mb 0.00 in0.0 mm 0.00 in0.0 mm 0.00 in0.0 mm
09:33 AM 20.3°F-6.5°C 11.8°F-11.2°C 69% Calm Calm 4.0 mph6.4 kmh 30.57 in1035.2 mb 0.00 in0.0 mm 0.00 in0.0 mm 0.00 in0.0 mm
09:38 AM 20.7°F-6.3°C 11.5°F-11.4°C 67% 0.9 mph NW1.4 kmh NW 4.0 mph6.4 kmh 30.57 in1035.2 mb 0.00 in0.0 mm 0.00 in0.0 mm 0.00 in0.0 mm
09:43 AM 21.0°F-6.1°C 11.5°F-11.4°C 66% Calm Calm 2.9 mph4.7 kmh 30.56 in1034.9 mb 0.00 in0.0 mm 0.00 in0.0 mm 0.00 in0.0 mm
09:48 AM 21.7°F-5.7°C 11.8°F-11.2°C 65% Calm Calm 2.0 mph3.2 kmh 30.56 in1034.9 mb 0.00 in0.0 mm 0.00 in0.0 mm 0.00 in0.0 mm
09:53 AM 21.9°F-5.6°C 10.6°F-11.9°C 61% 0.9 mph NNW1.4 kmh NNW 4.0 mph6.4 kmh 30.56 in1034.9 mb 0.00 in0.0 mm 0.00 in0.0 mm 0.00 in0.0 mm
09:58 AM 21.9°F-5.6°C 9.3°F-12.6°C 58% 0.9 mph NW1.4 kmh NW 4.0 mph6.4 kmh 30.56 in1034.9 mb 0.00 in0.0 mm 0.00 in0.0 mm 0.00 in0.0 mm
10:03 AM 22.3°F-5.4°C 10.2°F-12.1°C 59% 0.9 mph NNW1.4 kmh NNW 4.9 mph7.9 kmh 30.56 in1034.9 mb 0.00 in0.0 mm 0.00 in0.0 mm 0.00 in0.0 mm
10:08 AM 22.6°F-5.2°C 10.0°F-12.2°C 58% 0.9 mph NW1.4 kmh NW 4.0 mph6.4 kmh 30.56 in1034.9 mb 0.00 in0.0 mm 0.00 in0.0 mm 0.00 in0.0 mm
10:13 AM 22.6°F-5.2°C 9.7°F-12.4°C 57% 0.9 mph NW1.4 kmh NW 5.0 mph8.0 kmh 30.57 in1035.2 mb 0.00 in0.0 mm 0.00 in0.0 mm 0.00 in0.0 mm
10:18 AM 22.8°F-5.1°C 9.5°F-12.5°C 56% 2.0 mph WSW3.2 kmh WSW 6.0 mph9.7 kmh 30.56 in1034.9 mb 0.00 in0.0 mm 0.00 in0.0 mm 0.00 in0.0 mm
10:23 AM 22.8°F-5.1°C 9.5°F-12.5°C 56% 2.0 mph NE3.2 kmh NE 4.9 mph7.9 kmh 30.56 in1034.9 mb 0.00 in0.0 mm 0.00 in0.0 mm 0.00 in0.0 mm
10:28 AM 23.2°F-4.9°C 10.2°F-12.1°C 57% 2.0 mph NNW3.2 kmh NNW 4.9 mph7.9 kmh 30.56 in1034.9 mb 0.00 in0.0 mm 0.00 in0.0 mm 0.00 in0.0 mm
10:33 AM 23.2°F-4.9°C 9.3°F-12.6°C 55% 2.0 mph NE3.2 kmh NE 4.9 mph7.9 kmh 30.55 in1034.5 mb 0.00 in0.0 mm 0.00 in0.0 mm 0.00 in0.0 mm
10:38 AM 23.0°F-5.0°C 9.3°F-12.6°C 55% 2.0 mph NE3.2 kmh NE 8.1 mph13.0 kmh 30.55 in1034.5 mb 0.00 in0.0 mm 0.00 in0.0 mm 0.00 in0.0 mm
10:43 AM 23.2°F-4.9°C 9.3°F-12.6°C 55% 2.0 mph N3.2 kmh N 6.0 mph9.7 kmh 30.55 in1034.5 mb 0.00 in0.0 mm 0.00 in0.0 mm 0.00 in0.0 mm
10:48 AM 23.2°F-4.9°C 9.3°F-12.6°C 55% 0.9 mph NE1.4 kmh NE 6.0 mph9.7 kmh 30.55 in1034.5 mb 0.00 in0.0 mm 0.00 in0.0 mm 0.00 in0.0 mm
10:53 AM 23.5°F-4.7°C 9.3°F-12.6°C 54% 0.9 mph E1.4 kmh E 6.0 mph9.7 kmh 30.55 in1034.5 mb 0.00 in0.0 mm 0.00 in0.0 mm 0.00 in0.0 mm
10:58 AM 23.7°F-4.6°C 9.9°F-12.3°C 55% 0.9 mph N1.4 kmh N 6.0 mph9.7 kmh 30.55 in1034.5 mb 0.00 in0.0 mm 0.00 in0.0 mm 0.00 in0.0 mm
11:03 AM 23.5°F-4.7°C 9.0°F-12.8°C 53% 2.0 mph NNW3.2 kmh NNW 6.0 mph9.7 kmh 30.56 in1034.9 mb 0.00 in0.0 mm 0.00 in0.0 mm 0.00 in0.0 mm
11:08 AM 23.5°F-4.7°C 9.3°F-12.6°C 54% 2.9 mph NE4.7 kmh NE 6.0 mph9.7 kmh 30.56 in1034.9 mb 0.00 in0.0 mm 0.00 in0.0 mm 0.00 in0.0 mm
11:13 AM 23.5°F-4.7°C 9.7°F-12.4°C 55% 2.0 mph NNE3.2 kmh NNE 2.9 mph4.7 kmh 30.56 in1034.9 mb 0.00 in0.0 mm 0.00 in0.0 mm 0.00 in0.0 mm
11:18 AM 23.9°F-4.5°C 10.0°F-12.2°C 55% 0.9 mph N1.4 kmh N 4.9 mph7.9 kmh 30.56 in1034.9 mb 0.00 in0.0 mm 0.00 in0.0 mm 0.00 in0.0 mm
11:23 AM 24.1°F-4.4°C 10.2°F-12.1°C 55% 0.9 mph N1.4 kmh N 4.9 mph7.9 kmh 30.55 in1034.5 mb 0.00 in0.0 mm 0.00 in0.0 mm 0.00 in0.0 mm
11:28 AM 24.1°F-4.4°C 10.2°F-12.1°C 55% 2.0 mph N3.2 kmh N 6.0 mph9.7 kmh 30.54 in1034.2 mb 0.00 in0.0 mm 0.00 in0.0 mm 0.00 in0.0 mm
11:33 AM 24.4°F-4.2°C 10.6°F-11.9°C 55% 2.0 mph NNW3.2 kmh NNW 6.9 mph11.1 kmh 30.54 in1034.2 mb 0.00 in0.0 mm 0.00 in0.0 mm 0.00 in0.0 mm
11:38 AM 24.4°F-4.2°C 10.2°F-12.1°C 54% 0.9 mph NNW1.4 kmh NNW 4.0 mph6.4 kmh 30.54 in1034.2 mb 0.00 in0.0 mm 0.00 in0.0 mm 0.00 in0.0 mm
11:43 AM 24.3°F-4.3°C 10.0°F-12.2°C 54% 0.9 mph NE1.4 kmh NE 6.0 mph9.7 kmh 30.55 in1034.5 mb 0.00 in0.0 mm 0.00 in0.0 mm 0.00 in0.0 mm
11:48 AM 24.6°F-4.1°C 10.4°F-12.0°C 54% 2.0 mph NE3.2 kmh NE 4.9 mph7.9 kmh 30.55 in1034.5 mb 0.00 in0.0 mm 0.00 in0.0 mm 0.00 in0.0 mm
11:53 AM 24.8°F-4.0°C 10.0°F-12.2°C 53% 0.9 mph NW1.4 kmh NW 2.9 mph4.7 kmh 30.54 in1034.2 mb 0.00 in0.0 mm 0.00 in0.0 mm 0.00 in0.0 mm
11:58 AM 24.8°F-4.0°C 10.6°F-11.9°C 54% 0.9 mph N1.4 kmh N 4.0 mph6.4 kmh 30.54 in1034.2 mb 0.00 in0.0 mm 0.00 in0.0 mm 0.00 in0.0 mm
12:03 PM 25.0°F-3.9°C 9.3°F-12.6°C 51% 2.0 mph N3.2 kmh N 5.0 mph8.0 kmh 30.54 in1034.2 mb 0.00 in0.0 mm 0.00 in0.0 mm 0.00 in0.0 mm
12:08 PM 25.2°F-3.8°C 10.4°F-12.0°C 53% 0.9 mph E1.4 kmh E 2.9 mph4.7 kmh 30.53 in1033.9 mb 0.00 in0.0 mm 0.00 in0.0 mm 0.00 in0.0 mm
12:13 PM 25.3°F-3.7°C 10.2°F-12.1°C 52% 0.9 mph N1.4 kmh N 8.1 mph13.0 kmh 30.52 in1033.5 mb 0.00 in0.0 mm 0.00 in0.0 mm 0.00 in0.0 mm
12:18 PM 24.8°F-4.0°C 9.7°F-12.4°C 52% 2.0 mph NW3.2 kmh NW 6.0 mph9.7 kmh 30.51 in1033.2 mb 0.00 in0.0 mm 0.00 in0.0 mm 0.00 in0.0 mm
12:23 PM 25.0°F-3.9°C 10.8°F-11.8°C 54% 2.0 mph NW3.2 kmh NW 4.0 mph6.4 kmh 30.51 in1033.2 mb 0.00 in0.0 mm 0.00 in0.0 mm 0.00 in0.0 mm
12:28 PM 25.3°F-3.7°C 10.9°F-11.7°C 54% 0.9 mph NE1.4 kmh NE 4.9 mph7.9 kmh 30.51 in1033.2 mb 0.00 in0.0 mm 0.00 in0.0 mm 0.00 in0.0 mm
12:33 PM 25.5°F-3.6°C 11.1°F-11.6°C 54% 0.9 mph N1.4 kmh N 4.0 mph6.4 kmh 30.51 in1033.2 mb 0.00 in0.0 mm 0.00 in0.0 mm 0.00 in0.0 mm
12:38 PM 25.3°F-3.7°C 10.9°F-11.7°C 54% 0.9 mph E1.4 kmh E 6.0 mph9.7 kmh 30.51 in1033.2 mb 0.00 in0.0 mm 0.00 in0.0 mm 0.00 in0.0 mm
12:43 PM 25.9°F-3.4°C 12.0°F-11.1°C 55% 0.9 mph N1.4 kmh N 4.9 mph7.9 kmh 30.51 in1033.2 mb 0.00 in0.0 mm 0.00 in0.0 mm 0.00 in0.0 mm
12:48 PM 25.9°F-3.4°C 11.5°F-11.4°C 54% 0.9 mph NNW1.4 kmh NNW 4.0 mph6.4 kmh 30.51 in1033.2 mb 0.00 in0.0 mm 0.00 in0.0 mm 0.00 in0.0 mm
12:53 PM 26.1°F-3.3°C 12.0°F-11.1°C 55% 0.9 mph WNW1.4 kmh WNW 2.9 mph4.7 kmh 30.51 in1033.2 mb 0.00 in0.0 mm 0.00 in0.0 mm 0.00 in0.0 mm
12:58 PM 26.2°F-3.2°C 11.8°F-11.2°C 54% 0.9 mph W1.4 kmh W 2.9 mph4.7 kmh 30.51 in1033.2 mb 0.00 in0.0 mm 0.00 in0.0 mm 0.00 in0.0 mm
01:03 PM 26.2°F-3.2°C 12.7°F-10.7°C 56% 0.9 mph WNW1.4 kmh WNW 4.0 mph6.4 kmh 30.50 in1032.8 mb 0.00 in0.0 mm 0.00 in0.0 mm 0.00 in0.0 mm
01:08 PM 26.4°F-3.1°C 12.4°F-10.9°C 55% 0.9 mph WNW1.4 kmh WNW 4.0 mph6.4 kmh 30.50 in1032.8 mb 0.00 in0.0 mm 0.00 in0.0 mm 0.00 in0.0 mm
01:14 PM 26.8°F-2.9°C 12.7°F-10.7°C 55% 0.9 mph NNW1.4 kmh NNW 4.0 mph6.4 kmh 30.50 in1032.8 mb 0.00 in0.0 mm 0.00 in0.0 mm 0.00 in0.0 mm
01:19 PM 26.8°F-2.9°C 12.7°F-10.7°C 55% 0.9 mph NE1.4 kmh NE 6.0 mph9.7 kmh 30.49 in1032.5 mb 0.00 in0.0 mm 0.00 in0.0 mm 0.00 in0.0 mm
01:24 PM 27.0°F-2.8°C 12.9°F-10.6°C 55% 0.9 mph WSW1.4 kmh WSW 4.9 mph7.9 kmh 30.49 in1032.5 mb 0.00 in0.0 mm 0.00 in0.0 mm 0.00 in0.0 mm
01:29 PM 27.1°F-2.7°C 12.2°F-11.0°C 53% 0.9 mph NW1.4 kmh NW 6.0 mph9.7 kmh 30.49 in1032.5 mb 0.00 in0.0 mm 0.00 in0.0 mm 0.00 in0.0 mm
01:34 PM 27.1°F-2.7°C 11.8°F-11.2°C 52% 0.9 mph NNE1.4 kmh NNE 6.0 mph9.7 kmh 30.49 in1032.5 mb 0.00 in0.0 mm 0.00 in0.0 mm 0.00 in0.0 mm
01:39 PM 27.5°F-2.5°C 12.6°F-10.8°C 53% 0.9 mph WSW1.4 kmh WSW 5.0 mph8.0 kmh 30.49 in1032.5 mb 0.00 in0.0 mm 0.00 in0.0 mm 0.00 in0.0 mm
01:44 PM 27.7°F-2.4°C 12.4°F-10.9°C 52% 0.9 mph NE1.4 kmh NE 8.9 mph14.3 kmh 30.49 in1032.5 mb 0.00 in0.0 mm 0.00 in0.0 mm 0.00 in0.0 mm
01:49 PM 27.3°F-2.6°C 12.0°F-11.1°C 52% 0.9 mph SW1.4 kmh SW 4.9 mph7.9 kmh 30.49 in1032.5 mb 0.00 in0.0 mm 0.00 in0.0 mm 0.00 in0.0 mm
01:54 PM 27.7°F-2.4°C 12.4°F-10.9°C 52% 0.9 mph SW1.4 kmh SW 4.0 mph6.4 kmh 30.49 in1032.5 mb 0.00 in0.0 mm 0.00 in0.0 mm 0.00 in0.0 mm
01:59 PM 28.0°F-2.2°C 11.8°F-11.2°C 50% 0.9 mph WNW1.4 kmh WNW 4.0 mph6.4 kmh 30.49 in1032.5 mb 0.00 in0.0 mm 0.00 in0.0 mm 0.00 in0.0 mm
02:04 PM 27.9°F-2.3°C 12.0°F-11.1°C 51% 0.9 mph N1.4 kmh N 4.0 mph6.4 kmh 30.49 in1032.5 mb 0.00 in0.0 mm 0.00 in0.0 mm 0.00 in0.0 mm
02:09 PM 27.9°F-2.3°C 11.7°F-11.3°C 50% 0.9 mph WNW1.4 kmh WNW 4.0 mph6.4 kmh 30.49 in1032.5 mb 0.00 in0.0 mm 0.00 in0.0 mm 0.00 in0.0 mm
02:14 PM 27.7°F-2.4°C 10.6°F-11.9°C 48% 2.0 mph N3.2 kmh N 4.9 mph7.9 kmh 30.48 in1032.2 mb 0.00 in0.0 mm 0.00 in0.0 mm 0.00 in0.0 mm
02:19 PM 27.7°F-2.4°C 10.9°F-11.7°C 49% 2.0 mph W3.2 kmh W 6.0 mph9.7 kmh 30.48 in1032.2 mb 0.00 in0.0 mm 0.00 in0.0 mm 0.00 in0.0 mm
02:24 PM 27.5°F-2.5°C 10.4°F-12.0°C 48% 0.9 mph S1.4 kmh S 8.1 mph13.0 kmh 30.48 in1032.2 mb 0.00 in0.0 mm 0.00 in0.0 mm 0.00 in0.0 mm
02:29 PM 27.7°F-2.4°C 10.9°F-11.7°C 49% 0.9 mph NW1.4 kmh NW 0.9 mph1.4 kmh 30.48 in1032.2 mb 0.00 in0.0 mm 0.00 in0.0 mm 0.00 in0.0 mm
02:34 PM 28.0°F-2.2°C 10.9°F-11.7°C 48% Calm Calm 2.0 mph3.2 kmh 30.48 in1032.2 mb 0.00 in0.0 mm 0.00 in0.0 mm 0.00 in0.0 mm
02:39 PM 27.9°F-2.3°C 10.2°F-12.1°C 47% Calm Calm 5.0 mph8.0 kmh 30.48 in1032.2 mb 0.00 in0.0 mm 0.00 in0.0 mm 0.00 in0.0 mm
02:44 PM 27.7°F-2.4°C 11.5°F-11.4°C 50% 0.9 mph NNW1.4 kmh NNW 5.0 mph8.0 kmh 30.49 in1032.5 mb 0.00 in0.0 mm 0.00 in0.0 mm 0.00 in0.0 mm
02:49 PM 27.5°F-2.5°C 10.4°F-12.0°C 48% 0.9 mph SW1.4 kmh SW 2.9 mph4.7 kmh 30.48 in1032.2 mb 0.00 in0.0 mm 0.00 in0.0 mm 0.00 in0.0 mm
02:54 PM 27.5°F-2.5°C 10.4°F-12.0°C 48% 0.9 mph NNW1.4 kmh NNW 5.0 mph8.0 kmh 30.48 in1032.2 mb 0.00 in0.0 mm 0.00 in0.0 mm 0.00 in0.0 mm
02:59 PM 27.7°F-2.4°C 10.6°F-11.9°C 48% 0.9 mph NNW1.4 kmh NNW 2.0 mph3.2 kmh 30.49 in1032.5 mb 0.00 in0.0 mm 0.00 in0.0 mm 0.00 in0.0 mm
03:04 PM 27.3°F-2.6°C 10.2°F-12.1°C 48% 0.9 mph W1.4 kmh W 4.0 mph6.4 kmh 30.48 in1032.2 mb 0.00 in0.0 mm 0.00 in0.0 mm 0.00 in0.0 mm
03:09 PM 27.3°F-2.6°C 10.8°F-11.8°C 49% 0.9 mph NNW1.4 kmh NNW 4.0 mph6.4 kmh 30.48 in1032.2 mb 0.00 in0.0 mm 0.00 in0.0 mm 0.00 in0.0 mm
03:14 PM 27.7°F-2.4°C 10.9°F-11.7°C 49% Calm Calm 4.0 mph6.4 kmh 30.48 in1032.2 mb 0.00 in0.0 mm 0.00 in0.0 mm 0.00 in0.0 mm
03:19 PM 27.7°F-2.4°C 10.9°F-11.7°C 49% Calm Calm 4.0 mph6.4 kmh 30.48 in1032.2 mb 0.00 in0.0 mm 0.00 in0.0 mm 0.00 in0.0 mm
03:24 PM 27.3°F-2.6°C 11.1°F-11.6°C 50% Calm Calm 2.9 mph4.7 kmh 30.48 in1032.2 mb 0.00 in0.0 mm 0.00 in0.0 mm 0.00 in0.0 mm
03:29 PM 27.3°F-2.6°C 11.7°F-11.3°C 51% 0.9 mph N1.4 kmh N 4.0 mph6.4 kmh 30.48 in1032.2 mb 0.00 in0.0 mm 0.00 in0.0 mm 0.00 in0.0 mm
03:34 PM 27.1°F-2.7°C 11.8°F-11.2°C 52% Calm Calm 0.9 mph1.4 kmh 30.48 in1032.2 mb 0.00 in0.0 mm 0.00 in0.0 mm 0.00 in0.0 mm
03:39 PM 27.3°F-2.6°C 11.7°F-11.3°C 51% 0.9 mph NNW1.4 kmh NNW 6.0 mph9.7 kmh 30.48 in1032.2 mb 0.00 in0.0 mm 0.00 in0.0 mm 0.00 in0.0 mm
03:44 PM 27.3°F-2.6°C 11.7°F-11.3°C 51% 0.9 mph SW1.4 kmh SW 2.0 mph3.2 kmh 30.48 in1032.2 mb 0.00 in0.0 mm 0.00 in0.0 mm 0.00 in0.0 mm
03:49 PM 27.3°F-2.6°C 11.7°F-11.3°C 51% Calm Calm 4.0 mph6.4 kmh 30.48 in1032.2 mb 0.00 in0.0 mm 0.00 in0.0 mm 0.00 in0.0 mm
03:54 PM 27.1°F-2.7°C 11.5°F-11.4°C 51% Calm Calm 2.0 mph3.2 kmh 30.48 in1032.2 mb 0.00 in0.0 mm 0.00 in0.0 mm 0.00 in0.0 mm
03:59 PM 27.0°F-2.8°C 12.0°F-11.1°C 53% Calm Calm 2.0 mph3.2 kmh 30.48 in1032.2 mb 0.00 in0.0 mm 0.00 in0.0 mm 0.00 in0.0 mm
04:04 PM 27.0°F-2.8°C 11.7°F-11.3°C 52% Calm Calm 0.9 mph1.4 kmh 30.48 in1032.2 mb 0.00 in0.0 mm 0.00 in0.0 mm 0.00 in0.0 mm
04:09 PM 26.8°F-2.9°C 11.5°F-11.4°C 52% Calm Calm 4.0 mph6.4 kmh 30.48 in1032.2 mb 0.00 in0.0 mm 0.00 in0.0 mm 0.00 in0.0 mm
04:14 PM 26.8°F-2.9°C 12.0°F-11.1°C 53% Calm Calm 2.9 mph4.7 kmh 30.48 in1032.2 mb 0.00 in0.0 mm 0.00 in0.0 mm 0.00 in0.0 mm
04:19 PM 26.6°F-3.0°C 11.8°F-11.2°C 53% Calm Calm 0.9 mph1.4 kmh 30.48 in1032.2 mb 0.00 in0.0 mm 0.00 in0.0 mm 0.00 in0.0 mm
04:24 PM 26.4°F-3.1°C 12.0°F-11.1°C 54% Calm Calm 2.0 mph3.2 kmh 30.48 in1032.2 mb 0.00 in0.0 mm 0.00 in0.0 mm 0.00 in0.0 mm
04:29 PM 26.4°F-3.1°C 12.0°F-11.1°C 54% Calm Calm 0.9 mph1.4 kmh 30.49 in1032.5 mb 0.00 in0.0 mm 0.00 in0.0 mm 0.00 in0.0 mm
04:34 PM 26.2°F-3.2°C 12.2°F-11.0°C 55% Calm Calm 0.9 mph1.4 kmh 30.49 in1032.5 mb 0.00 in0.0 mm 0.00 in0.0 mm 0.00 in0.0 mm
04:39 PM 26.2°F-3.2°C 12.2°F-11.0°C 55% Calm Calm 0.9 mph1.4 kmh 30.49 in1032.5 mb 0.00 in0.0 mm 0.00 in0.0 mm 0.00 in0.0 mm
04:44 PM 26.1°F-3.3°C 12.0°F-11.1°C 55% Calm Calm 0.9 mph1.4 kmh 30.49 in1032.5 mb 0.00 in0.0 mm 0.00 in0.0 mm 0.00 in0.0 mm
04:49 PM 25.9°F-3.4°C 12.4°F-10.9°C 56% Calm Calm 0.9 mph1.4 kmh 30.49 in1032.5 mb 0.00 in0.0 mm 0.00 in0.0 mm 0.00 in0.0 mm
04:54 PM 25.9°F-3.4°C 12.4°F-10.9°C 56% Calm Calm -- 30.49 in1032.5 mb 0.00 in0.0 mm 0.00 in0.0 mm 0.00 in0.0 mm
04:59 PM 25.7°F-3.5°C 12.6°F-10.8°C 57% Calm Calm -- 30.49 in1032.5 mb 0.00 in0.0 mm 0.00 in0.0 mm 0.00 in0.0 mm
05:04 PM 25.5°F-3.6°C 12.4°F-10.9°C 57% Calm Calm -- 30.48 in1032.2 mb 0.00 in0.0 mm 0.00 in0.0 mm 0.00 in0.0 mm
05:09 PM 25.3°F-3.7°C 12.2°F-11.0°C 57% Calm Calm -- 30.49 in1032.5 mb 0.00 in0.0 mm 0.00 in0.0 mm 0.00 in0.0 mm
05:14 PM 25.3°F-3.7°C 12.6°F-10.8°C 58% Calm Calm -- 30.49 in1032.5 mb 0.00 in0.0 mm 0.00 in0.0 mm 0.00 in0.0 mm
05:19 PM 25.2°F-3.8°C 12.4°F-10.9°C 58% Calm Calm -- 30.49 in1032.5 mb 0.00 in0.0 mm 0.00 in0.0 mm 0.00 in0.0 mm
05:24 PM 24.8°F-4.0°C 12.6°F-10.8°C 59% Calm Calm -- 30.49 in1032.5 mb 0.00 in0.0 mm 0.00 in0.0 mm 0.00 in0.0 mm
05:30 PM 24.6°F-4.1°C 12.4°F-10.9°C 59% Calm Calm -- 30.49 in1032.5 mb 0.00 in0.0 mm 0.00 in0.0 mm 0.00 in0.0 mm
05:35 PM 24.4°F-4.2°C 12.6°F-10.8°C 60% Calm Calm -- 30.48 in1032.2 mb 0.00 in0.0 mm 0.00 in0.0 mm 0.00 in0.0 mm
05:40 PM 24.3°F-4.3°C 12.4°F-10.9°C 60% Calm Calm -- 30.49 in1032.5 mb 0.00 in0.0 mm 0.00 in0.0 mm 0.00 in0.0 mm
05:45 PM 23.7°F-4.6°C 12.2°F-11.0°C 61% Calm Calm -- 30.48 in1032.2 mb 0.00 in0.0 mm 0.00 in0.0 mm 0.00 in0.0 mm
05:50 PM 23.5°F-4.7°C 12.4°F-10.9°C 62% Calm Calm -- 30.48 in1032.2 mb 0.00 in0.0 mm 0.00 in0.0 mm 0.00 in0.0 mm
05:55 PM 23.2°F-4.9°C 12.4°F-10.9°C 63% Calm Calm -- 30.49 in1032.5 mb 0.00 in0.0 mm 0.00 in0.0 mm 0.00 in0.0 mm
06:00 PM 22.8°F-5.1°C 12.2°F-11.0°C 63% Calm Calm -- 30.49 in1032.5 mb 0.00 in0.0 mm 0.00 in0.0 mm 0.00 in0.0 mm
06:05 PM 22.5°F-5.3°C 12.2°F-11.0°C 64% Calm Calm -- 30.49 in1032.5 mb 0.00 in0.0 mm 0.00 in0.0 mm 0.00 in0.0 mm
06:10 PM 22.5°F-5.3°C 12.2°F-11.0°C 64% Calm Calm -- 30.49 in1032.5 mb 0.00 in0.0 mm 0.00 in0.0 mm 0.00 in0.0 mm
06:15 PM 22.3°F-5.4°C 12.4°F-10.9°C 65% Calm Calm -- 30.49 in1032.5 mb 0.00 in0.0 mm 0.00 in0.0 mm 0.00 in0.0 mm
06:20 PM 22.3°F-5.4°C 12.9°F-10.6°C 67% Calm Calm -- 30.49 in1032.5 mb 0.00 in0.0 mm 0.00 in0.0 mm 0.00 in0.0 mm
06:25 PM 22.3°F-5.4°C 12.9°F-10.6°C 67% Calm Calm -- 30.49 in1032.5 mb 0.00 in0.0 mm 0.00 in0.0 mm 0.00 in0.0 mm
06:30 PM 22.1°F-5.5°C 12.7°F-10.7°C 67% Calm Calm -- 30.49 in1032.5 mb 0.00 in0.0 mm 0.00 in0.0 mm 0.00 in0.0 mm
06:35 PM 22.1°F-5.5°C 13.1°F-10.5°C 68% Calm Calm -- 30.48 in1032.2 mb 0.00 in0.0 mm 0.00 in0.0 mm 0.00 in0.0 mm
06:40 PM 21.9°F-5.6°C 12.9°F-10.6°C 68% Calm Calm -- 30.49 in1032.5 mb 0.00 in0.0 mm 0.00 in0.0 mm 0.00 in0.0 mm
06:45 PM 21.9°F-5.6°C 13.3°F-10.4°C 69% Calm Calm -- 30.49 in1032.5 mb 0.00 in0.0 mm 0.00 in0.0 mm 0.00 in0.0 mm
06:50 PM 21.7°F-5.7°C 13.1°F-10.5°C 69% Calm Calm -- 30.49 in1032.5 mb 0.00 in0.0 mm 0.00 in0.0 mm 0.00 in0.0 mm
06:55 PM 21.7°F-5.7°C 13.5°F-10.3°C 70% Calm Calm -- 30.49 in1032.5 mb 0.00 in0.0 mm 0.00 in0.0 mm 0.00 in0.0 mm
07:00 PM 22.3°F-5.4°C 14.0°F-10.0°C 70% Calm Calm -- 30.49 in1032.5 mb 0.00 in0.0 mm 0.00 in0.0 mm 0.00 in0.0 mm
07:05 PM 22.8°F-5.1°C 14.5°F-9.7°C 70% Calm Calm -- 30.50 in1032.8 mb 0.00 in0.0 mm 0.00 in0.0 mm 0.00 in0.0 mm
07:10 PM 23.2°F-4.9°C 14.2°F-9.9°C 68% Calm Calm -- 30.50 in1032.8 mb 0.00 in0.0 mm 0.00 in0.0 mm 0.00 in0.0 mm
07:15 PM 23.7°F-4.6°C 14.4°F-9.8°C 67% Calm Calm -- 30.50 in1032.8 mb 0.00 in0.0 mm 0.00 in0.0 mm 0.00 in0.0 mm
07:20 PM 24.1°F-4.4°C 14.7°F-9.6°C 67% Calm Calm -- 30.50 in1032.8 mb 0.00 in0.0 mm 0.00 in0.0 mm 0.00 in0.0 mm
07:25 PM 24.3°F-4.3°C 14.5°F-9.7°C 66% Calm Calm -- 30.50 in1032.8 mb 0.00 in0.0 mm 0.00 in0.0 mm 0.00 in0.0 mm
07:30 PM 24.4°F-4.2°C 14.4°F-9.8°C 65% Calm Calm -- 30.50 in1032.8 mb 0.00 in0.0 mm 0.00 in0.0 mm 0.00 in0.0 mm
07:35 PM 24.6°F-4.1°C 14.5°F-9.7°C 65% Calm Calm -- 30.49 in1032.5 mb 0.00 in0.0 mm 0.00 in0.0 mm 0.00 in0.0 mm
07:40 PM 24.8°F-4.0°C 14.7°F-9.6°C 65% Calm Calm -- 30.49 in1032.5 mb 0.00 in0.0 mm 0.00 in0.0 mm 0.00 in0.0 mm
07:45 PM 25.0°F-3.9°C 14.9°F-9.5°C 65% Calm Calm -- 30.49 in1032.5 mb 0.00 in0.0 mm 0.00 in0.0 mm 0.00 in0.0 mm
07:50 PM 25.0°F-3.9°C 14.9°F-9.5°C 65% Calm Calm -- 30.49 in1032.5 mb 0.00 in0.0 mm 0.00 in0.0 mm 0.00 in0.0 mm
07:55 PM 25.0°F-3.9°C 14.5°F-9.7°C 64% Calm Calm -- 30.49 in1032.5 mb 0.00 in0.0 mm 0.00 in0.0 mm 0.00 in0.0 mm
08:00 PM 25.2°F-3.8°C 14.7°F-9.6°C 64% Calm Calm -- 30.49 in1032.5 mb 0.00 in0.0 mm 0.00 in0.0 mm 0.00 in0.0 mm
08:05 PM 25.2°F-3.8°C 14.7°F-9.6°C 64% Calm Calm -- 30.49 in1032.5 mb 0.00 in0.0 mm 0.00 in0.0 mm 0.00 in0.0 mm
08:10 PM 25.2°F-3.8°C 14.7°F-9.6°C 64% Calm Calm -- 30.49 in1032.5 mb 0.00 in0.0 mm 0.00 in0.0 mm 0.00 in0.0 mm
08:15 PM 25.2°F-3.8°C 14.7°F-9.6°C 64% Calm Calm -- 30.49 in1032.5 mb 0.00 in0.0 mm 0.00 in0.0 mm 0.00 in0.0 mm
08:20 PM 25.2°F-3.8°C 14.7°F-9.6°C 64% Calm Calm -- 30.50 in1032.8 mb 0.00 in0.0 mm 0.00 in0.0 mm 0.00 in0.0 mm
08:25 PM 25.3°F-3.7°C 14.9°F-9.5°C 64% Calm Calm -- 30.50 in1032.8 mb 0.00 in0.0 mm 0.00 in0.0 mm 0.00 in0.0 mm
08:30 PM 25.3°F-3.7°C 15.3°F-9.3°C 65% Calm Calm -- 30.50 in1032.8 mb 0.00 in0.0 mm 0.00 in0.0 mm 0.00 in0.0 mm
08:35 PM 25.5°F-3.6°C 15.4°F-9.2°C 65% Calm Calm -- 30.50 in1032.8 mb 0.00 in0.0 mm 0.00 in0.0 mm 0.00 in0.0 mm
08:40 PM 25.5°F-3.6°C 15.1°F-9.4°C 64% Calm Calm -- 30.50 in1032.8 mb 0.00 in0.0 mm 0.00 in0.0 mm 0.00 in0.0 mm
08:45 PM 25.5°F-3.6°C 15.1°F-9.4°C 64% Calm Calm -- 30.50 in1032.8 mb 0.00 in0.0 mm 0.00 in0.0 mm 0.00 in0.0 mm
08:50 PM 25.5°F-3.6°C 14.7°F-9.6°C 63% Calm Calm 0.9 mph1.4 kmh 30.50 in1032.8 mb 0.00 in0.0 mm 0.00 in0.0 mm 0.00 in0.0 mm
08:55 PM 25.5°F-3.6°C 14.7°F-9.6°C 63% Calm Calm -- 30.51 in1033.2 mb 0.00 in0.0 mm 0.00 in0.0 mm 0.00 in0.0 mm
09:00 PM 25.5°F-3.6°C 14.7°F-9.6°C 63% Calm Calm 0.9 mph1.4 kmh 30.51 in1033.2 mb 0.00 in0.0 mm 0.00 in0.0 mm 0.00 in0.0 mm
09:05 PM 25.5°F-3.6°C 14.7°F-9.6°C 63% Calm Calm -- 30.51 in1033.2 mb 0.00 in0.0 mm 0.00 in0.0 mm 0.00 in0.0 mm
09:10 PM 25.5°F-3.6°C 14.7°F-9.6°C 63% Calm Calm 0.9 mph1.4 kmh 30.50 in1032.8 mb 0.00 in0.0 mm 0.00 in0.0 mm 0.00 in0.0 mm
09:15 PM 25.5°F-3.6°C 14.7°F-9.6°C 63% Calm Calm -- 30.51 in1033.2 mb 0.00 in0.0 mm 0.00 in0.0 mm 0.00 in0.0 mm
09:20 PM 25.5°F-3.6°C 15.1°F-9.4°C 64% Calm Calm -- 30.51 in1033.2 mb 0.00 in0.0 mm 0.00 in0.0 mm 0.00 in0.0 mm
09:25 PM 25.5°F-3.6°C 15.1°F-9.4°C 64% Calm Calm 1.0 mph1.6 kmh 30.51 in1033.2 mb 0.00 in0.0 mm 0.00 in0.0 mm 0.00 in0.0 mm
09:30 PM 25.3°F-3.7°C 14.9°F-9.5°C 64% Calm Calm 0.9 mph1.4 kmh 30.51 in1033.2 mb 0.00 in0.0 mm 0.00 in0.0 mm 0.00 in0.0 mm
09:35 PM 25.3°F-3.7°C 14.5°F-9.7°C 63% Calm Calm 0.9 mph1.4 kmh 30.51 in1033.2 mb 0.00 in0.0 mm 0.00 in0.0 mm 0.00 in0.0 mm
09:40 PM 25.2°F-3.8°C 14.7°F-9.6°C 64% Calm Calm 2.0 mph3.2 kmh 30.51 in1033.2 mb 0.00 in0.0 mm 0.00 in0.0 mm 0.00 in0.0 mm
09:45 PM 25.0°F-3.9°C 14.5°F-9.7°C 64% Calm Calm 0.9 mph1.4 kmh 30.51 in1033.2 mb 0.00 in0.0 mm 0.00 in0.0 mm 0.00 in0.0 mm
09:50 PM 24.8°F-4.0°C 14.4°F-9.8°C 64% Calm Calm 0.9 mph1.4 kmh 30.51 in1033.2 mb 0.00 in0.0 mm 0.00 in0.0 mm 0.00 in0.0 mm
09:55 PM 24.6°F-4.1°C 14.2°F-9.9°C 64% Calm Calm -- 30.51 in1033.2 mb 0.00 in0.0 mm 0.00 in0.0 mm 0.00 in0.0 mm
10:00 PM 24.4°F-4.2°C 14.4°F-9.8°C 65% Calm Calm 1.0 mph1.6 kmh 30.51 in1033.2 mb 0.00 in0.0 mm 0.00 in0.0 mm 0.00 in0.0 mm
10:05 PM 24.3°F-4.3°C 14.2°F-9.9°C 65% Calm Calm -- 30.51 in1033.2 mb 0.00 in0.0 mm 0.00 in0.0 mm 0.00 in0.0 mm
10:11 PM 24.1°F-4.4°C 14.0°F-10.0°C 65% Calm Calm -- 30.51 in1033.2 mb 0.00 in0.0 mm 0.00 in0.0 mm 0.00 in0.0 mm
10:16 PM 23.7°F-4.6°C 13.3°F-10.4°C 64% Calm Calm -- 30.50 in1032.8 mb 0.00 in0.0 mm 0.00 in0.0 mm 0.00 in0.0 mm
10:21 PM 23.5°F-4.7°C 13.5°F-10.3°C 65% Calm Calm -- 30.50 in1032.8 mb 0.00 in0.0 mm 0.00 in0.0 mm 0.00 in0.0 mm
10:26 PM 23.2°F-4.9°C 13.1°F-10.5°C 65% Calm Calm -- 30.50 in1032.8 mb 0.00 in0.0 mm 0.00 in0.0 mm 0.00 in0.0 mm
10:31 PM 23.0°F-5.0°C 13.3°F-10.4°C 66% Calm Calm -- 30.50 in1032.8 mb 0.00 in0.0 mm 0.00 in0.0 mm 0.00 in0.0 mm
10:36 PM 22.8°F-5.1°C 13.1°F-10.5°C 66% Calm Calm -- 30.50 in1032.8 mb 0.00 in0.0 mm 0.00 in0.0 mm 0.00 in0.0 mm
10:41 PM 22.6°F-5.2°C 13.3°F-10.4°C 67% Calm Calm -- 30.49 in1032.5 mb 0.00 in0.0 mm 0.00 in0.0 mm 0.00 in0.0 mm
10:46 PM 22.5°F-5.3°C 13.1°F-10.5°C 67% Calm Calm 0.9 mph1.4 kmh 30.49 in1032.5 mb 0.00 in0.0 mm 0.00 in0.0 mm 0.00 in0.0 mm
10:51 PM 22.3°F-5.4°C 12.9°F-10.6°C 67% Calm Calm -- 30.49 in1032.5 mb 0.00 in0.0 mm 0.00 in0.0 mm 0.00 in0.0 mm
10:56 PM 22.3°F-5.4°C 12.9°F-10.6°C 67% Calm Calm -- 30.49 in1032.5 mb 0.00 in0.0 mm 0.00 in0.0 mm 0.00 in0.0 mm
11:01 PM 21.9°F-5.6°C 12.9°F-10.6°C 68% Calm Calm -- 30.49 in1032.5 mb 0.00 in0.0 mm 0.00 in0.0 mm 0.00 in0.0 mm
11:06 PM 21.7°F-5.7°C 13.1°F-10.5°C 69% Calm Calm -- 30.49 in1032.5 mb 0.00 in0.0 mm 0.00 in0.0 mm 0.00 in0.0 mm
11:11 PM 21.6°F-5.8°C 12.9°F-10.6°C 69% Calm Calm -- 30.49 in1032.5 mb 0.00 in0.0 mm 0.00 in0.0 mm 0.00 in0.0 mm
11:16 PM 21.4°F-5.9°C 13.1°F-10.5°C 70% Calm Calm -- 30.49 in1032.5 mb 0.00 in0.0 mm 0.00 in0.0 mm 0.00 in0.0 mm
11:21 PM 21.2°F-6.0°C 12.9°F-10.6°C 70% Calm Calm -- 30.49 in1032.5 mb 0.00 in0.0 mm 0.00 in0.0 mm 0.00 in0.0 mm
11:26 PM 21.0°F-6.1°C 12.7°F-10.7°C 70% Calm Calm -- 30.49 in1032.5 mb 0.00 in0.0 mm 0.00 in0.0 mm 0.00 in0.0 mm
11:31 PM 21.0°F-6.1°C 13.1°F-10.5°C 71% Calm Calm -- 30.49 in1032.5 mb 0.00 in0.0 mm 0.00 in0.0 mm 0.00 in0.0 mm
11:36 PM 21.0°F-6.1°C 13.1°F-10.5°C 71% Calm Calm -- 30.49 in1032.5 mb 0.00 in0.0 mm 0.00 in0.0 mm 0.00 in0.0 mm
11:41 PM 20.8°F-6.2°C 13.3°F-10.4°C 72% Calm Calm -- 30.49 in1032.5 mb 0.00 in0.0 mm 0.00 in0.0 mm 0.00 in0.0 mm
11:46 PM 20.7°F-6.3°C 12.7°F-10.7°C 71% Calm Calm -- 30.49 in1032.5 mb 0.00 in0.0 mm 0.00 in0.0 mm 0.00 in0.0 mm
11:51 PM 20.7°F-6.3°C 13.1°F-10.5°C 72% Calm Calm -- 30.49 in1032.5 mb 0.00 in0.0 mm 0.00 in0.0 mm 0.00 in0.0 mm
11:56 PM 20.7°F-6.3°C 13.1°F-10.5°C 72% Calm Calm -- 30.49 in1032.5 mb 0.00 in0.0 mm 0.00 in0.0 mm 0.00 in0.0 mm